createdAt,value
2019-03-26T00:03:45.279Z,2.13
2019-03-26T00:08:48.595Z,1.97
2019-03-26T00:13:52.141Z,1.63
2019-03-26T00:18:55.698Z,1.67
2019-03-26T00:23:59.017Z,1.97
2019-03-26T00:29:04.311Z,1.73
2019-03-26T00:34:18.760Z,1.83
2019-03-26T00:39:12.882Z,1.80
2019-03-26T00:44:16.466Z,1.83
2019-03-26T00:49:20.082Z,2.17
2019-03-26T00:54:25.266Z,2.20
2019-03-26T00:59:28.558Z,1.80
2019-03-26T01:04:33.389Z,1.90
2019-03-26T01:09:36.844Z,1.13
2019-03-26T01:14:40.386Z,1.77
2019-03-26T01:19:43.681Z,2.10
2019-03-26T01:24:47.221Z,1.83
2019-03-26T01:29:50.760Z,1.77
2019-03-26T01:34:54.073Z,1.50
2019-03-26T01:39:57.759Z,1.97
2019-03-26T01:45:01.331Z,1.77
2019-03-26T01:50:05.493Z,2.27
2019-03-26T01:55:09.098Z,1.87
2019-03-26T02:00:12.552Z,2.17
2019-03-26T02:05:16.099Z,2.80
2019-03-26T02:10:19.379Z,1.67
2019-03-26T02:15:31.252Z,2.10
2019-03-26T02:20:34.574Z,2.90
2019-03-26T02:25:43.344Z,1.80
2019-03-26T02:30:46.645Z,1.60
2019-03-26T02:35:49.995Z,1.40
2019-03-26T02:40:53.536Z,1.13
2019-03-26T02:45:56.812Z,1.17
2019-03-26T02:51:00.337Z,1.23
2019-03-26T02:56:03.615Z,1.20
2019-03-26T03:01:07.141Z,2.13
2019-03-26T03:06:11.521Z,1.83
2019-03-26T03:11:14.795Z,1.43
2019-03-26T03:16:18.495Z,1.23
2019-03-26T03:21:21.787Z,1.00
2019-03-26T03:26:25.333Z,1.10
2019-03-26T03:31:28.617Z,0.80
2019-03-26T03:36:31.959Z,1.10
2019-03-26T03:41:35.525Z,0.93
2019-03-26T03:46:39.708Z,1.87
2019-03-26T03:51:44.375Z,3.00
2019-03-26T03:56:49.217Z,2.80
2019-03-26T04:01:52.742Z,2.00
2019-03-26T04:06:56.282Z,2.40
2019-03-26T04:11:59.558Z,0.90
2019-03-26T04:17:03.201Z,0.97
2019-03-26T04:22:06.687Z,0.93
2019-03-26T04:27:10.235Z,1.17
2019-03-26T04:32:13.511Z,1.17
2019-03-26T04:37:17.052Z,1.60
2019-03-26T04:42:20.592Z,1.60
2019-03-26T04:47:24.142Z,1.23
2019-03-26T04:52:27.803Z,1.23
2019-03-26T04:57:31.086Z,1.30
2019-03-26T05:02:34.379Z,1.80
2019-03-26T05:07:37.732Z,3.20
2019-03-26T05:12:41.361Z,2.63
2019-03-26T05:17:44.645Z,2.27
2019-03-26T05:22:48.184Z,2.13
2019-03-26T05:27:51.728Z,1.50
2019-03-26T05:32:55.269Z,1.33
2019-03-26T05:37:58.576Z,1.97
2019-03-26T05:43:01.864Z,2.57
2019-03-26T05:48:05.394Z,2.23
2019-03-26T05:53:08.678Z,2.03
2019-03-26T05:58:12.212Z,1.67
2019-03-26T06:03:15.494Z,1.53
2019-03-26T06:08:19.050Z,1.60
2019-03-26T06:13:22.616Z,1.20
2019-03-26T06:18:26.143Z,1.53
2019-03-26T06:23:29.691Z,1.27
2019-03-26T06:28:45.896Z,1.47
2019-03-26T06:33:58.758Z,1.43
2019-03-26T06:39:11.884Z,1.37
2019-03-26T06:44:31.696Z,1.10
2019-03-26T06:55:06.255Z,2.77
2019-03-26T07:00:11.299Z,1.80
2019-03-26T07:05:17.733Z,2.03
2019-03-26T07:10:36.603Z,1.50
2019-03-26T07:15:40.170Z,1.50
2019-03-26T07:20:57.916Z,1.70
2019-03-26T07:26:00.865Z,1.73
2019-03-26T07:31:05.938Z,1.53
2019-03-26T07:36:12.824Z,1.83
2019-03-26T07:41:16.154Z,0.87
2019-03-26T07:46:23.763Z,1.17
2019-03-26T07:51:27.070Z,2.03
2019-03-26T07:56:30.607Z,2.03
2019-03-26T08:01:35.535Z,1.43
2019-03-26T08:06:41.689Z,1.23
2019-03-26T08:11:44.975Z,1.73
2019-03-26T08:16:50.248Z,1.73
2019-03-26T08:21:53.530Z,1.47
2019-03-26T08:26:57.088Z,1.53
2019-03-26T08:32:00.396Z,1.43
2019-03-26T08:37:03.946Z,1.10
2019-03-26T08:42:07.507Z,1.43
2019-03-26T08:47:10.800Z,1.47
2019-03-26T08:52:14.113Z,1.30
2019-03-26T08:57:17.496Z,2.03
2019-03-26T09:02:20.990Z,1.77
2019-03-26T09:07:24.550Z,1.43
2019-03-26T09:12:28.019Z,2.10
2019-03-26T09:17:31.544Z,2.07
2019-03-26T09:22:35.107Z,2.50
2019-03-26T09:27:38.421Z,2.70
2019-03-26T09:32:41.719Z,1.80
2019-03-26T09:37:45.003Z,1.53
2019-03-26T09:42:48.288Z,1.77
2019-03-26T09:47:51.808Z,2.30
2019-03-26T09:52:55.337Z,1.60
2019-03-26T09:57:58.902Z,2.03
2019-03-26T10:03:02.460Z,2.27
2019-03-26T10:08:05.752Z,2.20
2019-03-26T10:13:09.428Z,2.10
2019-03-26T10:18:12.711Z,1.93
2019-03-26T10:23:16.334Z,2.30
2019-03-26T10:28:19.638Z,1.80
2019-03-26T10:33:24.223Z,1.37
2019-03-26T10:38:27.441Z,2.00
2019-03-26T10:43:31.009Z,2.90
2019-03-26T10:48:34.322Z,2.40
2019-03-26T10:53:37.733Z,2.17
2019-03-26T10:58:41.033Z,2.03
2019-03-26T11:03:44.319Z,2.00
2019-03-26T11:08:47.842Z,1.93
2019-03-26T11:13:51.130Z,1.60
2019-03-26T11:18:54.435Z,1.60
2019-03-26T11:23:58.025Z,1.80
2019-03-26T11:29:01.557Z,1.70
2019-03-26T11:34:05.027Z,1.60
2019-03-26T11:39:08.705Z,1.40
2019-03-26T11:44:12.330Z,1.57
2019-03-26T11:49:15.619Z,1.70
2019-03-26T11:54:18.903Z,1.40
2019-03-26T11:59:22.763Z,1.20
2019-03-26T12:04:26.301Z,1.70
2019-03-26T12:09:29.839Z,1.07
2019-03-26T12:14:33.133Z,1.37
2019-03-26T12:19:36.676Z,1.43
2019-03-26T12:24:40.217Z,1.77
2019-03-26T12:29:43.885Z,3.23
2019-03-26T12:34:47.185Z,1.40
2019-03-26T12:39:59.385Z,2.00
2019-03-26T12:44:56.069Z,2.13
2019-03-26T12:49:59.673Z,1.20
2019-03-26T12:55:03.030Z,1.27
2019-03-26T13:00:09.579Z,1.57
2019-03-26T13:05:12.865Z,2.07
2019-03-26T13:10:16.158Z,2.20
2019-03-26T13:16:21.401Z,2.77
2019-03-26T13:21:24.716Z,2.20
2019-03-26T13:26:28.332Z,1.53
2019-03-26T13:31:31.889Z,1.50
2019-03-26T13:36:35.190Z,1.90
2019-03-26T13:41:38.480Z,1.83
2019-03-26T13:46:42.033Z,1.50
2019-03-26T13:51:45.334Z,2.07
2019-03-26T13:56:48.625Z,2.10
2019-03-26T14:01:51.935Z,1.63
2019-03-26T14:06:55.463Z,2.10
2019-03-26T14:11:58.769Z,1.90
2019-03-26T14:17:05.394Z,1.73
2019-03-26T14:22:07.370Z,1.50
2019-03-26T14:27:10.751Z,1.77
2019-03-26T14:32:14.058Z,1.90
2019-03-26T14:37:17.603Z,2.27
2019-03-26T14:42:20.908Z,2.07
2019-03-26T14:47:24.450Z,2.47
2019-03-26T14:52:27.738Z,3.00
2019-03-26T14:57:31.046Z,2.20
2019-03-26T15:02:34.598Z,3.20
2019-03-26T15:07:38.132Z,4.20
2019-03-26T15:12:41.424Z,3.20
2019-03-26T15:17:44.708Z,3.47
2019-03-26T15:22:48.370Z,2.40
2019-03-26T15:27:51.665Z,2.40
2019-03-26T15:32:54.946Z,2.60
2019-03-26T15:37:58.224Z,1.77
2019-03-26T15:43:01.514Z,2.77
2019-03-26T15:48:04.947Z,1.83
2019-03-26T15:53:08.232Z,2.03
2019-03-26T15:58:11.529Z,1.80
2019-03-26T16:03:14.858Z,1.67
2019-03-26T16:08:18.367Z,1.90
2019-03-26T16:13:21.654Z,1.40
2019-03-26T16:18:25.303Z,1.23
2019-03-26T16:23:28.828Z,1.60
2019-03-26T16:28:32.133Z,1.40
2019-03-26T16:33:35.387Z,1.77
2019-03-26T16:38:38.923Z,1.27
2019-03-26T16:43:42.441Z,1.70
2019-03-26T16:48:45.977Z,2.00
2019-03-26T16:53:49.252Z,2.20
2019-03-26T16:58:52.766Z,1.50
2019-03-26T17:03:56.294Z,1.40
2019-03-26T17:09:00.401Z,1.50
2019-03-26T17:14:03.685Z,2.00
2019-03-26T17:19:06.957Z,1.20
2019-03-26T17:24:10.246Z,1.77
2019-03-26T17:29:13.791Z,1.70
2019-03-26T17:34:17.084Z,1.60
2019-03-26T17:39:20.605Z,2.00
2019-03-26T17:44:23.880Z,1.90
2019-03-26T17:49:27.165Z,2.30
2019-03-26T17:54:30.446Z,2.10
2019-03-26T17:59:33.724Z,2.77
2019-03-26T18:04:37.019Z,2.70
2019-03-26T18:09:40.305Z,3.00
2019-03-26T18:14:43.576Z,2.23
2019-03-26T18:19:46.851Z,3.00
2019-03-26T18:24:50.143Z,3.80
2019-03-26T18:29:53.472Z,3.63
2019-03-26T18:34:57.515Z,2.97
2019-03-26T18:40:01.052Z,2.80
2019-03-26T18:45:06.380Z,2.30
2019-03-26T18:50:10.039Z,3.17
2019-03-26T18:55:13.445Z,2.97
2019-03-26T19:00:20.195Z,2.50
2019-03-26T19:05:23.707Z,2.67
2019-03-26T19:10:28.831Z,2.67
2019-03-26T19:15:32.121Z,2.93
2019-03-26T19:20:35.651Z,2.37
2019-03-26T19:25:39.206Z,3.20
2019-03-26T19:30:42.789Z,2.97
2019-03-26T19:35:46.070Z,2.30
2019-03-26T19:40:49.395Z,2.23
2019-03-26T19:45:52.963Z,2.00
2019-03-26T19:50:56.534Z,2.00
2019-03-26T19:56:00.126Z,2.47
2019-03-26T20:01:03.548Z,2.77
2019-03-26T20:06:13.228Z,2.60
2019-03-26T20:11:15.339Z,2.57
2019-03-26T20:16:17.658Z,2.80
2019-03-26T20:21:20.990Z,6.17
2019-03-26T20:26:24.565Z,4.87
2019-03-26T20:31:27.889Z,3.03
2019-03-26T20:36:31.189Z,3.77
2019-03-26T20:41:34.511Z,3.43
2019-03-26T20:46:38.153Z,3.23
2019-03-26T20:51:41.442Z,2.80
2019-03-26T20:56:45.241Z,2.43
2019-03-26T21:01:48.811Z,2.60
2019-03-26T21:06:52.344Z,3.50
2019-03-26T21:11:55.699Z,2.90
2019-03-26T21:16:59.103Z,3.30
2019-03-26T21:22:02.413Z,2.50
2019-03-26T21:27:05.725Z,2.13
2019-03-26T21:32:09.243Z,3.00
2019-03-26T21:37:12.780Z,3.13
2019-03-26T21:42:16.069Z,3.53
2019-03-26T21:47:19.587Z,3.53
2019-03-26T21:52:23.109Z,3.37
2019-03-26T21:57:26.797Z,2.80
2019-03-26T22:02:30.071Z,2.90
2019-03-26T22:07:33.359Z,3.63
2019-03-26T22:12:36.711Z,3.67
2019-03-26T22:17:39.998Z,4.17
2019-03-26T22:22:43.281Z,3.20
2019-03-26T22:27:46.795Z,3.27
2019-03-26T22:32:50.068Z,4.13
2019-03-26T22:37:53.353Z,4.40
2019-03-26T22:42:56.900Z,4.17
2019-03-26T22:48:00.418Z,4.37
2019-03-26T22:53:03.698Z,3.80
2019-03-26T22:58:06.990Z,4.77
2019-03-26T23:03:10.580Z,4.60
2019-03-26T23:08:13.878Z,4.50
2019-03-26T23:13:17.162Z,4.13
2019-03-26T23:18:20.693Z,4.70
2019-03-26T23:23:23.973Z,5.03
2019-03-26T23:28:27.664Z,5.07
2019-03-26T23:33:30.943Z,6.03
2019-03-26T23:38:34.241Z,5.33
2019-03-26T23:43:37.522Z,5.90
2019-03-26T23:48:41.066Z,5.90
2019-03-26T23:53:44.351Z,5.63
2019-03-26T23:58:47.900Z,5.33
